sensor_id;sensor_type;location;lat;lon;timestamp;P1;durP1;ratioP1;P2;durP2;ratioP2
13832;SDS011;6987;19.472;-99.276;2023-12-04T00:00:19;40.97;;;30.13;;
13832;SDS011;6987;19.472;-99.276;2023-12-04T00:02:48;42.63;;;30.65;;
13832;SDS011;6987;19.472;-99.276;2023-12-04T00:05:18;37.38;;;29.73;;
13832;SDS011;6987;19.472;-99.276;2023-12-04T00:07:49;41.03;;;29.60;;
13832;SDS011;6987;19.472;-99.276;2023-12-04T00:10:19;35.70;;;27.63;;
13832;SDS011;6987;19.472;-99.276;2023-12-04T00:12:49;35.83;;;27.67;;
13832;SDS011;6987;19.472;-99.276;2023-12-04T00:15:19;37.95;;;26.90;;
13832;SDS011;6987;19.472;-99.276;2023-12-04T00:17:48;40.13;;;28.30;;
13832;SDS011;6987;19.472;-99.276;2023-12-04T00:20:18;36.95;;;26.65;;
13832;SDS011;6987;19.472;-99.276;2023-12-04T00:22:49;30.80;;;24.63;;
13832;SDS011;6987;19.472;-99.276;2023-12-04T00:25:18;29.58;;;23.95;;
13832;SDS011;6987;19.472;-99.276;2023-12-04T00:27:47;32.15;;;23.10;;
13832;SDS011;6987;19.472;-99.276;2023-12-04T00:30:17;31.00;;;24.05;;
13832;SDS011;6987;19.472;-99.276;2023-12-04T00:32:46;26.00;;;20.25;;
13832;SDS011;6987;19.472;-99.276;2023-12-04T00:35:15;32.30;;;23.75;;
13832;SDS011;6987;19.472;-99.276;2023-12-04T00:37:47;28.33;;;20.38;;
13832;SDS011;6987;19.472;-99.276;2023-12-04T00:40:16;25.67;;;20.75;;
13832;SDS011;6987;19.472;-99.276;2023-12-04T00:42:46;29.23;;;20.80;;
13832;SDS011;6987;19.472;-99.276;2023-12-04T00:45:16;24.38;;;19.10;;
13832;SDS011;6987;19.472;-99.276;2023-12-04T00:47:45;23.13;;;19.92;;
13832;SDS011;6987;19.472;-99.276;2023-12-04T00:50:14;27.40;;;20.55;;
13832;SDS011;6987;19.472;-99.276;2023-12-04T00:52:46;24.27;;;20.35;;
13832;SDS011;6987;19.472;-99.276;2023-12-04T00:55:16;25.92;;;19.17;;
13832;SDS011;6987;19.472;-99.276;2023-12-04T00:57:46;21.90;;;18.77;;
13832;SDS011;6987;19.472;-99.276;2023-12-04T01:00:16;23.80;;;19.25;;
13832;SDS011;6987;19.472;-99.276;2023-12-04T01:02:46;22.98;;;20.00;;
13832;SDS011;6987;19.472;-99.276;2023-12-04T01:05:16;28.85;;;21.02;;
13832;SDS011;6987;19.472;-99.276;2023-12-04T01:07:47;24.95;;;21.25;;
13832;SDS011;6987;19.472;-99.276;2023-12-04T01:10:17;31.45;;;22.05;;
13832;SDS011;6987;19.472;-99.276;2023-12-04T01:12:47;27.30;;;22.25;;
13832;SDS011;6987;19.472;-99.276;2023-12-04T01:15:17;29.67;;;23.23;;
13832;SDS011;6987;19.472;-99.276;2023-12-04T01:17:46;28.45;;;22.92;;
13832;SDS011;6987;19.472;-99.276;2023-12-04T01:20:16;27.40;;;23.10;;
13832;SDS011;6987;19.472;-99.276;2023-12-04T01:22:47;29.17;;;23.40;;
13832;SDS011;6987;19.472;-99.276;2023-12-04T01:25:17;29.13;;;23.40;;
13832;SDS011;6987;19.472;-99.276;2023-12-04T01:27:47;29.85;;;23.33;;
13832;SDS011;6987;19.472;-99.276;2023-12-04T01:30:17;31.15;;;23.27;;
13832;SDS011;6987;19.472;-99.276;2023-12-04T01:32:46;27.58;;;23.13;;
13832;SDS011;6987;19.472;-99.276;2023-12-04T01:35:16;29.70;;;22.50;;
13832;SDS011;6987;19.472;-99.276;2023-12-04T01:37:47;30.00;;;22.58;;
13832;SDS011;6987;19.472;-99.276;2023-12-04T01:40:17;25.45;;;21.00;;
13832;SDS011;6987;19.472;-99.276;2023-12-04T01:42:46;28.30;;;23.13;;
13832;SDS011;6987;19.472;-99.276;2023-12-04T01:45:14;30.88;;;21.83;;
13832;SDS011;6987;19.472;-99.276;2023-12-04T01:47:45;22.27;;;19.83;;
13832;SDS011;6987;19.472;-99.276;2023-12-04T01:50:15;25.02;;;22.30;;
13832;SDS011;6987;19.472;-99.276;2023-12-04T01:52:47;30.17;;;21.90;;
13832;SDS011;6987;19.472;-99.276;2023-12-04T01:55:17;30.42;;;23.95;;
13832;SDS011;6987;19.472;-99.276;2023-12-04T01:57:47;26.88;;;23.13;;
13832;SDS011;6987;19.472;-99.276;2023-12-04T02:00:17;26.17;;;23.30;;
13832;SDS011;6987;19.472;-99.276;2023-12-04T02:02:47;30.25;;;23.45;;
13832;SDS011;6987;19.472;-99.276;2023-12-04T02:05:16;30.02;;;24.73;;
13832;SDS011;6987;19.472;-99.276;2023-12-04T02:07:49;32.83;;;25.25;;
13832;SDS011;6987;19.472;-99.276;2023-12-04T02:10:19;32.60;;;25.58;;
13832;SDS011;6987;19.472;-99.276;2023-12-04T02:12:48;35.47;;;27.30;;
13832;SDS011;6987;19.472;-99.276;2023-12-04T02:15:18;32.75;;;26.70;;
13832;SDS011;6987;19.472;-99.276;2023-12-04T02:17:48;35.53;;;27.65;;
13832;SDS011;6987;19.472;-99.276;2023-12-04T02:20:18;32.85;;;27.45;;
13832;SDS011;6987;19.472;-99.276;2023-12-04T02:22:49;36.70;;;29.23;;
13832;SDS011;6987;19.472;-99.276;2023-12-04T02:25:20;35.08;;;27.52;;
13832;SDS011;6987;19.472;-99.276;2023-12-04T02:27:50;35.60;;;31.02;;
13832;SDS011;6987;19.472;-99.276;2023-12-04T02:30:22;41.80;;;31.00;;
13832;SDS011;6987;19.472;-99.276;2023-12-04T02:32:52;38.10;;;30.85;;
13832;SDS011;6987;19.472;-99.276;2023-12-04T02:35:23;37.13;;;29.95;;
13832;SDS011;6987;19.472;-99.276;2023-12-04T02:37:55;42.40;;;31.92;;
13832;SDS011;6987;19.472;-99.276;2023-12-04T02:40:26;44.20;;;32.70;;
13832;SDS011;6987;19.472;-99.276;2023-12-04T02:42:56;39.67;;;31.08;;
13832;SDS011;6987;19.472;-99.276;2023-12-04T02:45:26;37.35;;;31.13;;
13832;SDS011;6987;19.472;-99.276;2023-12-04T02:47:56;36.10;;;29.42;;
13832;SDS011;6987;19.472;-99.276;2023-12-04T02:50:25;38.55;;;30.17;;
13832;SDS011;6987;19.472;-99.276;2023-12-04T02:52:54;36.33;;;28.80;;
13832;SDS011;6987;19.472;-99.276;2023-12-04T02:55:24;39.78;;;30.52;;
13832;SDS011;6987;19.472;-99.276;2023-12-04T02:57:55;39.45;;;29.90;;
13832;SDS011;6987;19.472;-99.276;2023-12-04T03:00:24;38.85;;;31.08;;
13832;SDS011;6987;19.472;-99.276;2023-12-04T03:02:54;42.97;;;32.05;;
13832;SDS011;6987;19.472;-99.276;2023-12-04T03:05:23;47.03;;;33.78;;
13832;SDS011;6987;19.472;-99.276;2023-12-04T03:07:53;46.78;;;33.38;;
13832;SDS011;6987;19.472;-99.276;2023-12-04T03:10:22;46.90;;;33.85;;
13832;SDS011;6987;19.472;-99.276;2023-12-04T03:12:53;45.42;;;33.42;;
13832;SDS011;6987;19.472;-99.276;2023-12-04T03:15:22;42.45;;;33.15;;
13832;SDS011;6987;19.472;-99.276;2023-12-04T03:17:54;46.00;;;32.53;;
13832;SDS011;6987;19.472;-99.276;2023-12-04T03:20:23;49.20;;;33.83;;
13832;SDS011;6987;19.472;-99.276;2023-12-04T03:22:53;50.30;;;35.70;;
13832;SDS011;6987;19.472;-99.276;2023-12-04T03:25:22;54.95;;;37.50;;
13832;SDS011;6987;19.472;-99.276;2023-12-04T03:27:53;50.38;;;36.80;;
13832;SDS011;6987;19.472;-99.276;2023-12-04T03:30:22;54.33;;;36.30;;
13832;SDS011;6987;19.472;-99.276;2023-12-04T03:32:52;60.33;;;37.50;;
13832;SDS011;6987;19.472;-99.276;2023-12-04T03:35:21;51.53;;;35.25;;
13832;SDS011;6987;19.472;-99.276;2023-12-04T03:37:49;49.47;;;36.72;;
13832;SDS011;6987;19.472;-99.276;2023-12-04T03:40:18;54.78;;;38.42;;
13832;SDS011;6987;19.472;-99.276;2023-12-04T03:42:48;50.60;;;37.58;;
13832;SDS011;6987;19.472;-99.276;2023-12-04T03:45:19;55.20;;;38.75;;
13832;SDS011;6987;19.472;-99.276;2023-12-04T03:47:48;55.78;;;38.05;;
13832;SDS011;6987;19.472;-99.276;2023-12-04T03:50:17;52.75;;;37.75;;
13832;SDS011;6987;19.472;-99.276;2023-12-04T03:52:47;52.03;;;38.35;;
13832;SDS011;6987;19.472;-99.276;2023-12-04T03:55:16;57.63;;;39.10;;
13832;SDS011;6987;19.472;-99.276;2023-12-04T03:57:46;57.08;;;38.53;;
13832;SDS011;6987;19.472;-99.276;2023-12-04T04:00:16;53.38;;;36.97;;
13832;SDS011;6987;19.472;-99.276;2023-12-04T04:02:48;54.35;;;36.63;;
13832;SDS011;6987;19.472;-99.276;2023-12-04T04:05:17;46.90;;;35.90;;
13832;SDS011;6987;19.472;-99.276;2023-12-04T04:07:47;53.47;;;36.30;;
13832;SDS011;6987;19.472;-99.276;2023-12-04T04:10:17;46.97;;;34.28;;
13832;SDS011;6987;19.472;-99.276;2023-12-04T04:12:46;50.08;;;34.25;;
13832;SDS011;6987;19.472;-99.276;2023-12-04T04:15:16;46.03;;;33.63;;
13832;SDS011;6987;19.472;-99.276;2023-12-04T04:17:47;45.42;;;33.25;;
13832;SDS011;6987;19.472;-99.276;2023-12-04T04:20:16;42.92;;;32.90;;
13832;SDS011;6987;19.472;-99.276;2023-12-04T04:22:47;43.47;;;31.85;;
13832;SDS011;6987;19.472;-99.276;2023-12-04T04:25:17;45.78;;;32.50;;
13832;SDS011;6987;19.472;-99.276;2023-12-04T04:27:47;41.10;;;30.90;;
13832;SDS011;6987;19.472;-99.276;2023-12-04T04:30:17;35.67;;;27.88;;
13832;SDS011;6987;19.472;-99.276;2023-12-04T04:32:48;36.40;;;28.45;;
13832;SDS011;6987;19.472;-99.276;2023-12-04T04:35:17;35.67;;;28.13;;
13832;SDS011;6987;19.472;-99.276;2023-12-04T04:37:47;35.60;;;27.30;;
13832;SDS011;6987;19.472;-99.276;2023-12-04T04:40:16;35.17;;;25.90;;
13832;SDS011;6987;19.472;-99.276;2023-12-04T04:42:46;29.98;;;24.88;;
13832;SDS011;6987;19.472;-99.276;2023-12-04T04:45:16;33.70;;;25.15;;
13832;SDS011;6987;19.472;-99.276;2023-12-04T04:47:46;26.17;;;23.42;;
13832;SDS011;6987;19.472;-99.276;2023-12-04T04:50:17;29.77;;;22.55;;
13832;SDS011;6987;19.472;-99.276;2023-12-04T04:52:46;31.73;;;23.52;;
13832;SDS011;6987;19.472;-99.276;2023-12-04T04:55:16;25.30;;;21.27;;
13832;SDS011;6987;19.472;-99.276;2023-12-04T04:57:45;28.52;;;22.27;;
13832;SDS011;6987;19.472;-99.276;2023-12-04T05:00:15;27.65;;;21.80;;
13832;SDS011;6987;19.472;-99.276;2023-12-04T05:02:45;26.55;;;21.23;;
13832;SDS011;6987;19.472;-99.276;2023-12-04T05:05:16;27.02;;;21.17;;
13832;SDS011;6987;19.472;-99.276;2023-12-04T05:07:46;28.92;;;22.15;;
13832;SDS011;6987;19.472;-99.276;2023-12-04T05:10:15;29.73;;;24.08;;
13832;SDS011;6987;19.472;-99.276;2023-12-04T05:12:45;29.33;;;23.95;;
13832;SDS011;6987;19.472;-99.276;2023-12-04T05:15:15;30.08;;;23.77;;
13832;SDS011;6987;19.472;-99.276;2023-12-04T05:17:44;30.85;;;24.02;;
13832;SDS011;6987;19.472;-99.276;2023-12-04T05:20:15;30.52;;;24.67;;
13832;SDS011;6987;19.472;-99.276;2023-12-04T05:22:45;27.38;;;24.00;;
13832;SDS011;6987;19.472;-99.276;2023-12-04T05:25:14;29.10;;;22.95;;
13832;SDS011;6987;19.472;-99.276;2023-12-04T05:27:44;31.27;;;24.17;;
13832;SDS011;6987;19.472;-99.276;2023-12-04T05:30:14;31.00;;;24.73;;
13832;SDS011;6987;19.472;-99.276;2023-12-04T05:32:44;33.95;;;25.60;;
13832;SDS011;6987;19.472;-99.276;2023-12-04T05:35:15;36.17;;;25.02;;
13832;SDS011;6987;19.472;-99.276;2023-12-04T05:37:44;38.38;;;24.83;;
13832;SDS011;6987;19.472;-99.276;2023-12-04T05:40:14;37.92;;;24.55;;
13832;SDS011;6987;19.472;-99.276;2023-12-04T05:42:44;37.40;;;25.48;;
13832;SDS011;6987;19.472;-99.276;2023-12-04T05:45:13;36.65;;;25.95;;
13832;SDS011;6987;19.472;-99.276;2023-12-04T05:47:42;36.30;;;26.50;;
13832;SDS011;6987;19.472;-99.276;2023-12-04T05:50:12;42.17;;;26.92;;
13832;SDS011;6987;19.472;-99.276;2023-12-04T05:52:44;32.63;;;25.70;;
13832;SDS011;6987;19.472;-99.276;2023-12-04T05:55:14;36.65;;;26.77;;
13832;SDS011;6987;19.472;-99.276;2023-12-04T05:57:43;35.80;;;25.30;;
13832;SDS011;6987;19.472;-99.276;2023-12-04T06:00:13;33.72;;;24.30;;
13832;SDS011;6987;19.472;-99.276;2023-12-04T06:02:42;41.05;;;25.75;;
13832;SDS011;6987;19.472;-99.276;2023-12-04T06:05:12;40.95;;;25.33;;
13832;SDS011;6987;19.472;-99.276;2023-12-04T06:07:43;38.65;;;25.50;;
13832;SDS011;6987;19.472;-99.276;2023-12-04T06:10:12;44.10;;;25.63;;
13832;SDS011;6987;19.472;-99.276;2023-12-04T06:12:42;38.13;;;25.98;;
13832;SDS011;6987;19.472;-99.276;2023-12-04T06:15:11;37.95;;;26.15;;
13832;SDS011;6987;19.472;-99.276;2023-12-04T06:17:40;36.85;;;25.15;;
13832;SDS011;6987;19.472;-99.276;2023-12-04T06:20:10;39.92;;;26.80;;
13832;SDS011;6987;19.472;-99.276;2023-12-04T06:22:40;37.15;;;26.13;;
13832;SDS011;6987;19.472;-99.276;2023-12-04T06:25:12;40.45;;;26.63;;
13832;SDS011;6987;19.472;-99.276;2023-12-04T06:27:43;35.08;;;26.50;;
13832;SDS011;6987;19.472;-99.276;2023-12-04T06:30:13;37.50;;;26.10;;
13832;SDS011;6987;19.472;-99.276;2023-12-04T06:32:43;40.40;;;27.58;;
13832;SDS011;6987;19.472;-99.276;2023-12-04T06:35:13;38.42;;;27.65;;
13832;SDS011;6987;19.472;-99.276;2023-12-04T06:37:45;41.30;;;27.30;;
13832;SDS011;6987;19.472;-99.276;2023-12-04T06:40:16;40.55;;;27.92;;
13832;SDS011;6987;19.472;-99.276;2023-12-04T06:42:46;44.13;;;29.98;;
13832;SDS011;6987;19.472;-99.276;2023-12-04T06:45:17;40.03;;;27.60;;
13832;SDS011;6987;19.472;-99.276;2023-12-04T06:47:47;37.72;;;26.60;;
13832;SDS011;6987;19.472;-99.276;2023-12-04T06:50:18;41.40;;;27.67;;
13832;SDS011;6987;19.472;-99.276;2023-12-04T06:52:49;42.70;;;26.77;;
13832;SDS011;6987;19.472;-99.276;2023-12-04T06:55:19;37.30;;;26.15;;
13832;SDS011;6987;19.472;-99.276;2023-12-04T06:57:48;40.42;;;26.88;;
13832;SDS011;6987;19.472;-99.276;2023-12-04T07:00:17;40.65;;;27.90;;
13832;SDS011;6987;19.472;-99.276;2023-12-04T07:02:46;40.80;;;28.92;;
13832;SDS011;6987;19.472;-99.276;2023-12-04T07:05:16;43.55;;;29.35;;
13832;SDS011;6987;19.472;-99.276;2023-12-04T07:07:46;41.95;;;28.13;;
13832;SDS011;6987;19.472;-99.276;2023-12-04T07:10:16;39.78;;;27.98;;
13832;SDS011;6987;19.472;-99.276;2023-12-04T07:12:46;39.65;;;28.63;;
13832;SDS011;6987;19.472;-99.276;2023-12-04T07:15:16;39.60;;;27.08;;
13832;SDS011;6987;19.472;-99.276;2023-12-04T07:17:45;42.30;;;28.17;;
13832;SDS011;6987;19.472;-99.276;2023-12-04T07:20:14;39.22;;;27.50;;
13832;SDS011;6987;19.472;-99.276;2023-12-04T07:22:44;40.38;;;25.95;;
13832;SDS011;6987;19.472;-99.276;2023-12-04T07:25:13;40.17;;;25.80;;
13832;SDS011;6987;19.472;-99.276;2023-12-04T07:27:45;37.97;;;25.85;;
13832;SDS011;6987;19.472;-99.276;2023-12-04T07:30:14;31.83;;;24.02;;
13832;SDS011;6987;19.472;-99.276;2023-12-04T07:32:43;38.08;;;24.98;;
13832;SDS011;6987;19.472;-99.276;2023-12-04T07:35:13;39.20;;;25.13;;
13832;SDS011;6987;19.472;-99.276;2023-12-04T07:37:43;35.97;;;25.15;;
13832;SDS011;6987;19.472;-99.276;2023-12-04T07:40:12;37.83;;;26.33;;
13832;SDS011;6987;19.472;-99.276;2023-12-04T07:42:43;36.35;;;25.90;;
13832;SDS011;6987;19.472;-99.276;2023-12-04T07:45:13;36.38;;;26.27;;
13832;SDS011;6987;19.472;-99.276;2023-12-04T07:47:43;42.13;;;27.52;;
13832;SDS011;6987;19.472;-99.276;2023-12-04T07:50:12;42.45;;;28.05;;
13832;SDS011;6987;19.472;-99.276;2023-12-04T07:52:41;40.03;;;27.95;;
13832;SDS011;6987;19.472;-99.276;2023-12-04T07:55:10;38.75;;;27.00;;
13832;SDS011;6987;19.472;-99.276;2023-12-04T07:57:40;39.45;;;26.95;;
13832;SDS011;6987;19.472;-99.276;2023-12-04T08:00:11;40.22;;;25.65;;
13832;SDS011;6987;19.472;-99.276;2023-12-04T08:02:43;38.83;;;24.35;;
13832;SDS011;6987;19.472;-99.276;2023-12-04T08:05:13;30.80;;;21.70;;
13832;SDS011;6987;19.472;-99.276;2023-12-04T08:07:42;28.38;;;19.98;;
13832;SDS011;6987;19.472;-99.276;2023-12-04T08:10:12;28.70;;;19.15;;
13832;SDS011;6987;19.472;-99.276;2023-12-04T08:12:44;17.85;;;14.50;;
13832;SDS011;6987;19.472;-99.276;2023-12-04T08:15:15;12.68;;;11.25;;
13832;SDS011;6987;19.472;-99.276;2023-12-04T08:17:45;9.18;;;8.27;;
13832;SDS011;6987;19.472;-99.276;2023-12-04T08:20:14;8.52;;;7.72;;
13832;SDS011;6987;19.472;-99.276;2023-12-04T08:22:47;7.60;;;6.90;;
13832;SDS011;6987;19.472;-99.276;2023-12-04T08:25:16;9.82;;;6.55;;
13832;SDS011;6987;19.472;-99.276;2023-12-04T08:27:46;6.43;;;5.82;;
13832;SDS011;6987;19.472;-99.276;2023-12-04T08:30:17;7.05;;;5.28;;
13832;SDS011;6987;19.472;-99.276;2023-12-04T08:32:46;7.25;;;5.50;;
13832;SDS011;6987;19.472;-99.276;2023-12-04T08:35:15;5.93;;;5.35;;
13832;SDS011;6987;19.472;-99.276;2023-12-04T08:37:44;5.38;;;4.97;;
13832;SDS011;6987;19.472;-99.276;2023-12-04T08:40:13;4.90;;;4.43;;
13832;SDS011;6987;19.472;-99.276;2023-12-04T08:42:43;6.35;;;4.57;;
13832;SDS011;6987;19.472;-99.276;2023-12-04T08:45:12;6.40;;;5.43;;
13832;SDS011;6987;19.472;-99.276;2023-12-04T08:47:43;4.60;;;4.20;;
13832;SDS011;6987;19.472;-99.276;2023-12-04T08:50:14;5.43;;;5.03;;
13832;SDS011;6987;19.472;-99.276;2023-12-04T08:52:44;5.10;;;4.68;;
13832;SDS011;6987;19.472;-99.276;2023-12-04T08:55:14;5.22;;;4.93;;
13832;SDS011;6987;19.472;-99.276;2023-12-04T08:57:43;6.50;;;5.43;;
13832;SDS011;6987;19.472;-99.276;2023-12-04T09:00:14;6.30;;;5.70;;
13832;SDS011;6987;19.472;-99.276;2023-12-04T09:02:47;6.03;;;5.53;;
13832;SDS011;6987;19.472;-99.276;2023-12-04T09:05:16;5.97;;;5.38;;
13832;SDS011;6987;19.472;-99.276;2023-12-04T09:07:46;5.97;;;5.25;;
13832;SDS011;6987;19.472;-99.276;2023-12-04T09:10:16;5.68;;;5.22;;
13832;SDS011;6987;19.472;-99.276;2023-12-04T09:12:45;5.13;;;4.72;;
13832;SDS011;6987;19.472;-99.276;2023-12-04T09:15:15;5.05;;;4.65;;
13832;SDS011;6987;19.472;-99.276;2023-12-04T09:17:46;5.00;;;4.68;;
13832;SDS011;6987;19.472;-99.276;2023-12-04T09:20:15;5.65;;;5.25;;
13832;SDS011;6987;19.472;-99.276;2023-12-04T09:22:45;5.38;;;4.88;;
13832;SDS011;6987;19.472;-99.276;2023-12-04T09:25:15;5.22;;;4.82;;
13832;SDS011;6987;19.472;-99.276;2023-12-04T09:27:44;5.18;;;4.68;;
13832;SDS011;6987;19.472;-99.276;2023-12-04T09:30:14;5.45;;;5.13;;
13832;SDS011;6987;19.472;-99.276;2023-12-04T09:32:44;7.05;;;4.97;;
13832;SDS011;6987;19.472;-99.276;2023-12-04T09:35:15;6.05;;;5.55;;
13832;SDS011;6987;19.472;-99.276;2023-12-04T09:37:45;5.93;;;5.47;;
13832;SDS011;6987;19.472;-99.276;2023-12-04T09:40:16;6.03;;;5.57;;
13832;SDS011;6987;19.472;-99.276;2023-12-04T09:42:46;5.45;;;4.93;;
13832;SDS011;6987;19.472;-99.276;2023-12-04T09:45:15;6.22;;;5.72;;
13832;SDS011;6987;19.472;-99.276;2023-12-04T09:47:48;6.20;;;5.70;;
13832;SDS011;6987;19.472;-99.276;2023-12-04T09:50:17;6.00;;;5.50;;
13832;SDS011;6987;19.472;-99.276;2023-12-04T09:52:48;6.53;;;5.93;;
13832;SDS011;6987;19.472;-99.276;2023-12-04T09:55:18;5.70;;;5.30;;
13832;SDS011;6987;19.472;-99.276;2023-12-04T09:57:48;6.13;;;5.63;;
13832;SDS011;6987;19.472;-99.276;2023-12-04T10:00:19;5.95;;;5.55;;
13832;SDS011;6987;19.472;-99.276;2023-12-04T10:02:51;6.07;;;5.57;;
13832;SDS011;6987;19.472;-99.276;2023-12-04T10:05:20;5.75;;;5.35;;
13832;SDS011;6987;19.472;-99.276;2023-12-04T10:07:50;6.20;;;5.80;;
13832;SDS011;6987;19.472;-99.276;2023-12-04T10:10:19;5.93;;;5.43;;
13832;SDS011;6987;19.472;-99.276;2023-12-04T10:12:52;5.88;;;5.47;;
13832;SDS011;6987;19.472;-99.276;2023-12-04T10:15:21;5.28;;;4.88;;
13832;SDS011;6987;19.472;-99.276;2023-12-04T10:17:52;4.95;;;4.55;;
13832;SDS011;6987;19.472;-99.276;2023-12-04T10:20:22;5.30;;;4.90;;
13832;SDS011;6987;19.472;-99.276;2023-12-04T10:22:52;5.75;;;4.85;;
13832;SDS011;6987;19.472;-99.276;2023-12-04T10:25:22;5.43;;;4.93;;
13832;SDS011;6987;19.472;-99.276;2023-12-04T10:27:51;5.40;;;5.00;;
13832;SDS011;6987;19.472;-99.276;2023-12-04T10:30:22;5.47;;;5.07;;
13832;SDS011;6987;19.472;-99.276;2023-12-04T10:32:57;4.95;;;4.65;;
13832;SDS011;6987;19.472;-99.276;2023-12-04T10:35:30;4.95;;;4.57;;
13832;SDS011;6987;19.472;-99.276;2023-12-04T10:38:02;4.90;;;4.50;;
13832;SDS011;6987;19.472;-99.276;2023-12-04T10:40:32;4.55;;;4.15;;
13832;SDS011;6987;19.472;-99.276;2023-12-04T10:45:49;4.88;;;4.50;;
13832;SDS011;6987;19.472;-99.276;2023-12-04T10:48:22;3.83;;;3.58;;
13832;SDS011;6987;19.472;-99.276;2023-12-04T10:50:51;3.65;;;3.45;;
13832;SDS011;6987;19.472;-99.276;2023-12-04T10:53:24;3.88;;;3.58;;
13832;SDS011;6987;19.472;-99.276;2023-12-04T10:55:53;4.05;;;3.75;;
13832;SDS011;6987;19.472;-99.276;2023-12-04T10:58:26;3.67;;;3.47;;
13832;SDS011;6987;19.472;-99.276;2023-12-04T11:00:55;3.65;;;3.25;;
13832;SDS011;6987;19.472;-99.276;2023-12-04T11:03:31;4.18;;;3.88;;
13832;SDS011;6987;19.472;-99.276;2023-12-04T11:06:04;4.03;;;3.70;;
13832;SDS011;6987;19.472;-99.276;2023-12-04T11:08:36;3.72;;;3.45;;
13832;SDS011;6987;19.472;-99.276;2023-12-04T11:11:08;4.15;;;3.85;;
13832;SDS011;6987;19.472;-99.276;2023-12-04T11:13:41;4.15;;;3.75;;
13832;SDS011;6987;19.472;-99.276;2023-12-04T11:16:12;3.50;;;3.30;;
13832;SDS011;6987;19.472;-99.276;2023-12-04T11:18:48;4.53;;;4.13;;
13832;SDS011;6987;19.472;-99.276;2023-12-04T11:21:23;4.35;;;3.65;;
13832;SDS011;6987;19.472;-99.276;2023-12-04T11:23:53;3.55;;;3.33;;
13832;SDS011;6987;19.472;-99.276;2023-12-04T11:26:24;3.75;;;3.45;;
13832;SDS011;6987;19.472;-99.276;2023-12-04T11:28:54;3.50;;;3.20;;
13832;SDS011;6987;19.472;-99.276;2023-12-04T11:31:24;3.40;;;3.20;;
13832;SDS011;6987;19.472;-99.276;2023-12-04T11:33:56;3.22;;;3.03;;
13832;SDS011;6987;19.472;-99.276;2023-12-04T11:36:30;3.25;;;3.05;;
13832;SDS011;6987;19.472;-99.276;2023-12-04T11:39:01;3.42;;;3.22;;
13832;SDS011;6987;19.472;-99.276;2023-12-04T11:41:31;3.20;;;2.90;;
13832;SDS011;6987;19.472;-99.276;2023-12-04T11:44:01;3.60;;;3.30;;
13832;SDS011;6987;19.472;-99.276;2023-12-04T11:46:31;3.45;;;3.25;;
13832;SDS011;6987;19.472;-99.276;2023-12-04T11:51:59;3.90;;;3.60;;
13832;SDS011;6987;19.472;-99.276;2023-12-04T11:54:38;3.53;;;3.25;;
13832;SDS011;6987;19.472;-99.276;2023-12-04T11:57:26;4.15;;;3.85;;
13832;SDS011;6987;19.472;-99.276;2023-12-04T12:00:10;3.97;;;3.67;;
13832;SDS011;6987;19.472;-99.276;2023-12-04T12:02:46;4.20;;;3.90;;
13832;SDS011;6987;19.472;-99.276;2023-12-04T12:05:18;4.38;;;4.03;;
13832;SDS011;6987;19.472;-99.276;2023-12-04T12:07:47;4.32;;;3.75;;
13832;SDS011;6987;19.472;-99.276;2023-12-04T12:10:17;3.95;;;3.65;;
13832;SDS011;6987;19.472;-99.276;2023-12-04T12:12:46;4.00;;;3.70;;
13832;SDS011;6987;19.472;-99.276;2023-12-04T12:15:15;3.80;;;3.50;;
13832;SDS011;6987;19.472;-99.276;2023-12-04T12:17:44;4.00;;;3.55;;
13832;SDS011;6987;19.472;-99.276;2023-12-04T12:20:14;3.97;;;3.72;;
13832;SDS011;6987;19.472;-99.276;2023-12-04T12:22:45;5.00;;;4.38;;
13832;SDS011;6987;19.472;-99.276;2023-12-04T12:25:15;4.00;;;3.70;;
13832;SDS011;6987;19.472;-99.276;2023-12-04T12:27:45;3.80;;;3.50;;
13832;SDS011;6987;19.472;-99.276;2023-12-04T12:30:14;3.58;;;3.28;;
13832;SDS011;6987;19.472;-99.276;2023-12-04T12:32:44;4.30;;;3.47;;
13832;SDS011;6987;19.472;-99.276;2023-12-04T12:35:14;4.32;;;3.65;;
13832;SDS011;6987;19.472;-99.276;2023-12-04T12:37:45;3.63;;;3.33;;
13832;SDS011;6987;19.472;-99.276;2023-12-04T12:40:14;4.45;;;4.05;;
13832;SDS011;6987;19.472;-99.276;2023-12-04T12:42:43;4.10;;;3.72;;
13832;SDS011;6987;19.472;-99.276;2023-12-04T12:45:12;3.47;;;3.20;;
13832;SDS011;6987;19.472;-99.276;2023-12-04T12:47:42;3.47;;;3.17;;
13832;SDS011;6987;19.472;-99.276;2023-12-04T12:50:11;3.95;;;3.53;;
13832;SDS011;6987;19.472;-99.276;2023-12-04T12:52:41;4.00;;;3.70;;
13832;SDS011;6987;19.472;-99.276;2023-12-04T12:55:12;3.60;;;3.33;;
13832;SDS011;6987;19.472;-99.276;2023-12-04T12:57:51;3.58;;;3.28;;
13832;SDS011;6987;19.472;-99.276;2023-12-04T13:00:22;3.75;;;3.33;;
13832;SDS011;6987;19.472;-99.276;2023-12-04T13:02:52;4.47;;;3.13;;
13832;SDS011;6987;19.472;-99.276;2023-12-04T13:05:21;4.22;;;3.53;;
13832;SDS011;6987;19.472;-99.276;2023-12-04T13:07:50;3.80;;;3.50;;
13832;SDS011;6987;19.472;-99.276;2023-12-04T13:10:22;4.60;;;3.65;;
13832;SDS011;6987;19.472;-99.276;2023-12-04T13:12:51;3.47;;;3.17;;
13832;SDS011;6987;19.472;-99.276;2023-12-04T13:15:22;3.85;;;3.50;;
13832;SDS011;6987;19.472;-99.276;2023-12-04T13:17:51;3.70;;;3.50;;
13832;SDS011;6987;19.472;-99.276;2023-12-04T13:20:20;4.60;;;4.30;;
13832;SDS011;6987;19.472;-99.276;2023-12-04T13:22:49;4.00;;;3.70;;
13832;SDS011;6987;19.472;-99.276;2023-12-04T13:25:19;4.55;;;4.15;;
13832;SDS011;6987;19.472;-99.276;2023-12-04T13:27:50;4.57;;;4.00;;
13832;SDS011;6987;19.472;-99.276;2023-12-04T13:30:19;3.97;;;3.60;;
13832;SDS011;6987;19.472;-99.276;2023-12-04T13:32:48;4.35;;;3.97;;
13832;SDS011;6987;19.472;-99.276;2023-12-04T13:35:17;5.05;;;4.07;;
13832;SDS011;6987;19.472;-99.276;2023-12-04T13:37:46;4.20;;;3.90;;
13832;SDS011;6987;19.472;-99.276;2023-12-04T13:40:21;4.18;;;3.60;;
13832;SDS011;6987;19.472;-99.276;2023-12-04T13:42:55;3.75;;;3.45;;
13832;SDS011;6987;19.472;-99.276;2023-12-04T13:45:41;4.25;;;3.90;;
13832;SDS011;6987;19.472;-99.276;2023-12-04T13:48:10;7.78;;;4.43;;
13832;SDS011;6987;19.472;-99.276;2023-12-04T13:50:40;4.45;;;3.70;;
13832;SDS011;6987;19.472;-99.276;2023-12-04T13:53:09;4.40;;;4.10;;
13832;SDS011;6987;19.472;-99.276;2023-12-04T13:55:40;5.75;;;4.68;;
13832;SDS011;6987;19.472;-99.276;2023-12-04T13:58:36;4.82;;;4.35;;
13832;SDS011;6987;19.472;-99.276;2023-12-04T14:01:08;5.13;;;4.45;;
13832;SDS011;6987;19.472;-99.276;2023-12-04T14:03:40;4.88;;;4.32;;
13832;SDS011;6987;19.472;-99.276;2023-12-04T14:06:10;5.38;;;4.70;;
13832;SDS011;6987;19.472;-99.276;2023-12-04T14:08:41;5.53;;;4.47;;
13832;SDS011;6987;19.472;-99.276;2023-12-04T14:11:11;4.68;;;4.25;;
13832;SDS011;6987;19.472;-99.276;2023-12-04T14:13:44;5.78;;;4.22;;
13832;SDS011;6987;19.472;-99.276;2023-12-04T14:16:13;5.88;;;5.32;;
13832;SDS011;6987;19.472;-99.276;2023-12-04T14:18:43;6.05;;;4.93;;
13832;SDS011;6987;19.472;-99.276;2023-12-04T14:21:12;7.20;;;5.55;;
13832;SDS011;6987;19.472;-99.276;2023-12-04T14:23:41;6.20;;;5.60;;
13832;SDS011;6987;19.472;-99.276;2023-12-04T14:26:11;7.18;;;5.55;;
13832;SDS011;6987;19.472;-99.276;2023-12-04T14:28:40;6.60;;;5.80;;
13832;SDS011;6987;19.472;-99.276;2023-12-04T14:31:11;7.30;;;6.07;;
13832;SDS011;6987;19.472;-99.276;2023-12-04T14:33:40;6.57;;;5.68;;
13832;SDS011;6987;19.472;-99.276;2023-12-04T14:36:10;13.45;;;8.77;;
13832;SDS011;6987;19.472;-99.276;2023-12-04T14:38:39;10.52;;;9.38;;
13832;SDS011;6987;19.472;-99.276;2023-12-04T14:41:08;12.25;;;9.25;;